Hanahan, South Carolina
Current Conditions -  °F | °C
As of 8:56 PM on Tuesday 21 Oct 2014 (Local Time) from KCHS Reporting Station
Clear Clear  
Wind Chill: 64°   Ceiling: Unl
Heat Index: 64°   Visibility: 10mi
Dew Point: 56°   Wind: 7mph
Humidity: 75%   Direction: 240°WSW
Pressure: 29.91"   Gusts: NA
Location:  32.9116°N, 80.0017°W
Report Text: KCHS 220056Z 24006KT 10SM CLR 18/13 A2991 RMK AO2 SLP127 T01780133
Loading
Personal Weather Stations






























Interactive Weather Map
Tropical Storm Tracking
New forecast layout! Learn more

10-Day Weather Forecast

Advertisements
Track Severe Weather on mobile